Huvudsida
METAR-TAF:

METAR-TAF

Flygplatser :

Umeå Airport

Umeå, Sverige

latitud: 63-48N, longitud: 020-17E, höjd: 7 m

Aktuellt väderrapport

Denna rapport gjordes för 19 minuter sedan, klockan 20:20 UTC
Vind 6 kt från ost
Temperatur -4°C
Fuktighet 74%
Tryck 1011 hPa
Sikt 10 km eller mer
Inga moln under 1 500 m eller inga cumulonimbus

METAR: ESNU 262020Z 08006KT CAVOK M04/M08 Q1011 R14/72//55

Tid: 21:39 (20:39 UTC)

Väderprognos

Denna rapport gjordes för 9 minuter sedan, klockan 20:30 UTC
Prognos gäller från 26 kl. 21 UTC till 27 kl. 06 UTC
Vind 8 kt från ost/nordost
Sikt 10 km eller mer
Inga moln under 1 500 m eller inga cumulonimbus
Sannolikhet 40%
från 26 kl. 21 UTC till 27 kl. 02 UTC
Brutna moln på en höjd av 1400 ft
Temporärt
från 27 kl. 02 UTC till 27 kl. 06 UTC
Sikt: 2000 m
på en höjd av 1000 ft
snö

TAF: ESNU 262030Z 2621/2706 07008KT CAVOK PROB40 2621/2702 BKN014 TEMPO 2702/2706 2000 SN VV010

Aktuella väderrapporter och prognoser från 4000 flygplatser (METAR- och TAF-rapporter).

De tillgängliga stationerna syns som gula och röda prickar på kartan.

För musen över prickarna för att se namnen på stationerna.

Klicka sedan för att få väderrapporter och prognoser.

För att ändra kartan: Klicka på de gröna knapparna med ett svart kors på för att zooma in; den gröna knappen med ett streck på för att zooma ut; eller på de gröna pilarna för angränsande kartor.


METAR-TAF: